Argonne, Wisconsin
Current Conditions -  °F | °C
As of 3:35 AM on Tuesday 21 Oct 2014 (Local Time) from KEGV Reporting Station
Overcast Overcast  
Wind Chill:   Ceiling: 1400
Heat Index:   Visibility: 10mi
Dew Point:   Wind: 6mph
Humidity: 91%   Direction: 360°N
Pressure: 30.12"   Gusts: NA
Location:  45.66°N, 88.88°W
Report Text: KEGV 210835Z AUTO 36005KT 10SM OVC014 04/02 A3012 RMK AO2 T00350022
Loading
Personal Weather Stations






























Interactive Weather Map
Tropical Storm Tracking
New forecast layout! Learn more

10-Day Weather Forecast

Advertisements
Track Severe Weather on mobile